sensor_id;sensor_type;location;lat;lon;timestamp;temperature;humidity
17252;DHT22;8742;51.716;8.790;2022-12-29T00:02:28;11.20;99.90
17252;DHT22;8742;51.716;8.790;2022-12-29T00:04:55;11.10;99.90
17252;DHT22;8742;51.716;8.790;2022-12-29T00:07:21;11.10;99.90
17252;DHT22;8742;51.716;8.790;2022-12-29T00:09:48;11.00;99.90
17252;DHT22;8742;51.716;8.790;2022-12-29T00:12:15;11.00;99.90
17252;DHT22;8742;51.716;8.790;2022-12-29T00:14:42;11.00;99.90
17252;DHT22;8742;51.716;8.790;2022-12-29T00:17:27;11.10;99.90
17252;DHT22;8742;51.716;8.790;2022-12-29T00:19:54;11.10;99.90
17252;DHT22;8742;51.716;8.790;2022-12-29T00:22:38;11.20;99.90
17252;DHT22;8742;51.716;8.790;2022-12-29T00:25:23;11.30;99.90
17252;DHT22;8742;51.716;8.790;2022-12-29T00:28:08;11.30;99.90
17252;DHT22;8742;51.716;8.790;2022-12-29T00:30:52;11.30;99.90
17252;DHT22;8742;51.716;8.790;2022-12-29T00:33:37;11.30;99.90
17252;DHT22;8742;51.716;8.790;2022-12-29T00:36:25;11.40;99.90
17252;DHT22;8742;51.716;8.790;2022-12-29T00:38:58;11.40;99.90
17252;DHT22;8742;51.716;8.790;2022-12-29T00:41:43;11.50;99.90
17252;DHT22;8742;51.716;8.790;2022-12-29T00:44:27;11.50;99.90
17252;DHT22;8742;51.716;8.790;2022-12-29T00:46:54;11.60;99.90
17252;DHT22;8742;51.716;8.790;2022-12-29T00:49:22;11.50;99.90
17252;DHT22;8742;51.716;8.790;2022-12-29T00:51:59;11.50;99.90
17252;DHT22;8742;51.716;8.790;2022-12-29T00:54:26;11.50;99.90
17252;DHT22;8742;51.716;8.790;2022-12-29T00:56:53;11.50;99.90
17252;DHT22;8742;51.716;8.790;2022-12-29T00:59:20;11.50;99.90
17252;DHT22;8742;51.716;8.790;2022-12-29T01:01:50;11.60;99.90
17252;DHT22;8742;51.716;8.790;2022-12-29T01:04:17;11.70;99.90
17252;DHT22;8742;51.716;8.790;2022-12-29T01:06:45;11.80;99.90
17252;DHT22;8742;51.716;8.790;2022-12-29T01:09:12;11.80;99.90
17252;DHT22;8742;51.716;8.790;2022-12-29T01:11:58;11.80;99.90
17252;DHT22;8742;51.716;8.790;2022-12-29T01:14:25;11.80;99.90
17252;DHT22;8742;51.716;8.790;2022-12-29T01:16:53;11.80;99.90
17252;DHT22;8742;51.716;8.790;2022-12-29T01:19:20;11.90;99.90
17252;DHT22;8742;51.716;8.790;2022-12-29T01:21:49;11.80;99.90
17252;DHT22;8742;51.716;8.790;2022-12-29T01:24:17;11.80;99.90
17252;DHT22;8742;51.716;8.790;2022-12-29T01:26:44;11.80;99.90
17252;DHT22;8742;51.716;8.790;2022-12-29T01:29:11;11.80;99.90
17252;DHT22;8742;51.716;8.790;2022-12-29T01:31:38;11.80;99.90
17252;DHT22;8742;51.716;8.790;2022-12-29T01:34:05;11.80;99.90
17252;DHT22;8742;51.716;8.790;2022-12-29T01:36:32;11.80;99.90
17252;DHT22;8742;51.716;8.790;2022-12-29T01:39:01;11.80;99.90
17252;DHT22;8742;51.716;8.790;2022-12-29T01:41:27;11.80;99.90
17252;DHT22;8742;51.716;8.790;2022-12-29T01:43:56;11.80;99.90
17252;DHT22;8742;51.716;8.790;2022-12-29T01:46:27;11.80;99.90
17252;DHT22;8742;51.716;8.790;2022-12-29T01:48:59;11.90;99.90
17252;DHT22;8742;51.716;8.790;2022-12-29T01:51:29;11.90;99.90
17252;DHT22;8742;51.716;8.790;2022-12-29T01:53:58;11.90;99.90
17252;DHT22;8742;51.716;8.790;2022-12-29T01:56:28;11.90;99.90
17252;DHT22;8742;51.716;8.790;2022-12-29T01:59:00;11.80;99.90
17252;DHT22;8742;51.716;8.790;2022-12-29T02:01:28;11.90;99.90
17252;DHT22;8742;51.716;8.790;2022-12-29T02:03:55;11.90;99.90
17252;DHT22;8742;51.716;8.790;2022-12-29T02:06:23;11.90;99.90
17252;DHT22;8742;51.716;8.790;2022-12-29T02:08:53;11.90;99.90
17252;DHT22;8742;51.716;8.790;2022-12-29T02:11:23;12.00;99.90
17252;DHT22;8742;51.716;8.790;2022-12-29T02:13:53;12.00;99.90
17252;DHT22;8742;51.716;8.790;2022-12-29T02:16:35;12.00;99.90
17252;DHT22;8742;51.716;8.790;2022-12-29T02:19:27;12.00;99.90
17252;DHT22;8742;51.716;8.790;2022-12-29T02:22:09;12.10;99.90
17252;DHT22;8742;51.716;8.790;2022-12-29T02:28:14;12.10;99.90
17252;DHT22;8742;51.716;8.790;2022-12-29T02:31:00;12.10;99.90
17252;DHT22;8742;51.716;8.790;2022-12-29T02:33:39;12.10;99.90
17252;DHT22;8742;51.716;8.790;2022-12-29T02:36:14;12.20;99.90
17252;DHT22;8742;51.716;8.790;2022-12-29T02:38:55;12.20;99.90
17252;DHT22;8742;51.716;8.790;2022-12-29T02:41:29;12.20;99.90
17252;DHT22;8742;51.716;8.790;2022-12-29T02:44:03;12.20;99.90
17252;DHT22;8742;51.716;8.790;2022-12-29T02:46:40;12.10;99.90
17252;DHT22;8742;51.716;8.790;2022-12-29T02:49:11;12.10;99.90
17252;DHT22;8742;51.716;8.790;2022-12-29T02:51:50;12.10;99.90
17252;DHT22;8742;51.716;8.790;2022-12-29T02:54:18;12.10;99.90
17252;DHT22;8742;51.716;8.790;2022-12-29T02:57:04;12.10;99.90
17252;DHT22;8742;51.716;8.790;2022-12-29T02:59:31;12.10;99.90
17252;DHT22;8742;51.716;8.790;2022-12-29T03:02:18;12.10;99.90
17252;DHT22;8742;51.716;8.790;2022-12-29T03:05:12;12.10;99.90
17252;DHT22;8742;51.716;8.790;2022-12-29T03:07:46;12.20;99.90
17252;DHT22;8742;51.716;8.790;2022-12-29T03:10:25;12.20;99.90
17252;DHT22;8742;51.716;8.790;2022-12-29T03:13:02;12.20;99.90
17252;DHT22;8742;51.716;8.790;2022-12-29T03:15:53;12.20;99.90
17252;DHT22;8742;51.716;8.790;2022-12-29T03:18:39;12.20;99.90
17252;DHT22;8742;51.716;8.790;2022-12-29T03:21:11;12.20;99.90
17252;DHT22;8742;51.716;8.790;2022-12-29T03:23:41;12.20;99.90
17252;DHT22;8742;51.716;8.790;2022-12-29T03:26:11;12.20;99.90
17252;DHT22;8742;51.716;8.790;2022-12-29T03:28:42;12.20;99.90
17252;DHT22;8742;51.716;8.790;2022-12-29T03:31:13;12.20;99.90
17252;DHT22;8742;51.716;8.790;2022-12-29T03:33:42;12.20;99.90
17252;DHT22;8742;51.716;8.790;2022-12-29T03:36:14;12.20;99.90
17252;DHT22;8742;51.716;8.790;2022-12-29T03:38:46;12.20;99.90
17252;DHT22;8742;51.716;8.790;2022-12-29T03:41:17;12.10;99.90
17252;DHT22;8742;51.716;8.790;2022-12-29T03:43:45;12.10;99.90
17252;DHT22;8742;51.716;8.790;2022-12-29T03:46:12;12.10;99.90
17252;DHT22;8742;51.716;8.790;2022-12-29T03:48:39;12.20;99.90
17252;DHT22;8742;51.716;8.790;2022-12-29T03:51:07;12.10;99.90
17252;DHT22;8742;51.716;8.790;2022-12-29T03:53:34;12.10;99.90
17252;DHT22;8742;51.716;8.790;2022-12-29T03:56:01;12.10;99.90
17252;DHT22;8742;51.716;8.790;2022-12-29T03:58:28;12.10;99.90
17252;DHT22;8742;51.716;8.790;2022-12-29T04:00:55;12.10;99.90
17252;DHT22;8742;51.716;8.790;2022-12-29T04:03:22;12.20;99.90
17252;DHT22;8742;51.716;8.790;2022-12-29T04:05:48;12.20;99.90
17252;DHT22;8742;51.716;8.790;2022-12-29T04:08:16;12.20;99.90
17252;DHT22;8742;51.716;8.790;2022-12-29T04:10:43;12.20;99.90
17252;DHT22;8742;51.716;8.790;2022-12-29T04:13:10;12.30;99.90
17252;DHT22;8742;51.716;8.790;2022-12-29T04:15:37;12.30;99.90
17252;DHT22;8742;51.716;8.790;2022-12-29T04:18:04;12.30;99.90
17252;DHT22;8742;51.716;8.790;2022-12-29T04:20:30;12.30;99.90
17252;DHT22;8742;51.716;8.790;2022-12-29T04:23:16;12.30;99.90
17252;DHT22;8742;51.716;8.790;2022-12-29T04:25:45;12.30;99.90
17252;DHT22;8742;51.716;8.790;2022-12-29T04:28:12;12.30;99.90
17252;DHT22;8742;51.716;8.790;2022-12-29T04:33:07;12.30;99.90
17252;DHT22;8742;51.716;8.790;2022-12-29T04:35:34;12.30;99.90
17252;DHT22;8742;51.716;8.790;2022-12-29T04:38:01;12.30;99.90
17252;DHT22;8742;51.716;8.790;2022-12-29T04:40:29;12.30;99.90
17252;DHT22;8742;51.716;8.790;2022-12-29T04:42:56;12.30;99.90
17252;DHT22;8742;51.716;8.790;2022-12-29T04:45:22;12.30;99.90
17252;DHT22;8742;51.716;8.790;2022-12-29T04:47:49;12.30;99.90
17252;DHT22;8742;51.716;8.790;2022-12-29T04:50:16;12.30;99.90
17252;DHT22;8742;51.716;8.790;2022-12-29T04:52:43;12.30;99.90
17252;DHT22;8742;51.716;8.790;2022-12-29T04:55:10;12.30;99.90
17252;DHT22;8742;51.716;8.790;2022-12-29T04:57:38;12.30;99.90
17252;DHT22;8742;51.716;8.790;2022-12-29T05:00:07;12.30;99.90
17252;DHT22;8742;51.716;8.790;2022-12-29T05:02:35;12.30;99.90
17252;DHT22;8742;51.716;8.790;2022-12-29T05:05:02;12.30;99.90
17252;DHT22;8742;51.716;8.790;2022-12-29T05:07:29;12.30;99.90
17252;DHT22;8742;51.716;8.790;2022-12-29T05:09:55;12.20;99.90
17252;DHT22;8742;51.716;8.790;2022-12-29T05:12:22;12.20;99.90
17252;DHT22;8742;51.716;8.790;2022-12-29T05:14:50;12.20;99.90
17252;DHT22;8742;51.716;8.790;2022-12-29T05:17:17;12.20;99.90
17252;DHT22;8742;51.716;8.790;2022-12-29T05:19:44;12.30;99.90
17252;DHT22;8742;51.716;8.790;2022-12-29T05:22:11;12.30;99.90
17252;DHT22;8742;51.716;8.790;2022-12-29T05:24:37;12.30;99.90
17252;DHT22;8742;51.716;8.790;2022-12-29T05:27:04;12.20;99.90
17252;DHT22;8742;51.716;8.790;2022-12-29T05:29:31;12.30;99.90
17252;DHT22;8742;51.716;8.790;2022-12-29T05:31:59;12.30;99.90
17252;DHT22;8742;51.716;8.790;2022-12-29T05:34:26;12.20;99.90
17252;DHT22;8742;51.716;8.790;2022-12-29T05:36:53;12.10;99.90
17252;DHT22;8742;51.716;8.790;2022-12-29T05:39:19;12.10;99.90
17252;DHT22;8742;51.716;8.790;2022-12-29T05:41:46;12.10;99.90
17252;DHT22;8742;51.716;8.790;2022-12-29T05:44:13;12.10;99.90
17252;DHT22;8742;51.716;8.790;2022-12-29T05:46:40;12.10;99.90
17252;DHT22;8742;51.716;8.790;2022-12-29T05:49:08;12.00;99.90
17252;DHT22;8742;51.716;8.790;2022-12-29T05:51:35;12.00;99.90
17252;DHT22;8742;51.716;8.790;2022-12-29T05:54:02;12.10;99.90
17252;DHT22;8742;51.716;8.790;2022-12-29T05:56:29;12.20;99.90
17252;DHT22;8742;51.716;8.790;2022-12-29T05:58:55;12.20;99.90
17252;DHT22;8742;51.716;8.790;2022-12-29T06:01:22;12.20;99.90
17252;DHT22;8742;51.716;8.790;2022-12-29T06:03:49;12.20;99.90
17252;DHT22;8742;51.716;8.790;2022-12-29T06:06:17;12.30;99.90
17252;DHT22;8742;51.716;8.790;2022-12-29T06:08:44;12.20;99.90
17252;DHT22;8742;51.716;8.790;2022-12-29T06:11:11;12.30;99.90
17252;DHT22;8742;51.716;8.790;2022-12-29T06:13:38;12.40;99.90
17252;DHT22;8742;51.716;8.790;2022-12-29T06:16:05;12.30;99.90
17252;DHT22;8742;51.716;8.790;2022-12-29T06:18:32;12.30;99.90
17252;DHT22;8742;51.716;8.790;2022-12-29T06:21:00;12.30;99.90
17252;DHT22;8742;51.716;8.790;2022-12-29T06:23:28;12.30;99.90
17252;DHT22;8742;51.716;8.790;2022-12-29T06:25:55;12.40;99.90
17252;DHT22;8742;51.716;8.790;2022-12-29T06:28:23;12.40;99.90
17252;DHT22;8742;51.716;8.790;2022-12-29T06:30:50;12.50;99.90
17252;DHT22;8742;51.716;8.790;2022-12-29T06:33:17;12.50;99.90
17252;DHT22;8742;51.716;8.790;2022-12-29T06:35:43;12.50;99.90
17252;DHT22;8742;51.716;8.790;2022-12-29T06:38:11;12.50;99.90
17252;DHT22;8742;51.716;8.790;2022-12-29T06:40:39;12.50;99.90
17252;DHT22;8742;51.716;8.790;2022-12-29T06:43:06;12.50;99.90
17252;DHT22;8742;51.716;8.790;2022-12-29T06:45:33;12.50;99.90
17252;DHT22;8742;51.716;8.790;2022-12-29T06:48:00;12.50;99.90
17252;DHT22;8742;51.716;8.790;2022-12-29T06:50:27;12.50;99.90
17252;DHT22;8742;51.716;8.790;2022-12-29T06:52:53;12.50;99.90
17252;DHT22;8742;51.716;8.790;2022-12-29T06:55:20;12.50;99.90
17252;DHT22;8742;51.716;8.790;2022-12-29T06:57:49;12.50;99.90
17252;DHT22;8742;51.716;8.790;2022-12-29T07:00:16;12.50;99.90
17252;DHT22;8742;51.716;8.790;2022-12-29T07:02:43;12.50;99.90
17252;DHT22;8742;51.716;8.790;2022-12-29T07:05:11;12.40;99.90
17252;DHT22;8742;51.716;8.790;2022-12-29T07:07:39;12.40;99.90
17252;DHT22;8742;51.716;8.790;2022-12-29T07:10:06;12.40;99.90
17252;DHT22;8742;51.716;8.790;2022-12-29T07:12:33;12.40;99.90
17252;DHT22;8742;51.716;8.790;2022-12-29T07:15:01;12.40;99.90
17252;DHT22;8742;51.716;8.790;2022-12-29T07:17:28;12.40;99.90
17252;DHT22;8742;51.716;8.790;2022-12-29T07:19:55;12.40;99.90
17252;DHT22;8742;51.716;8.790;2022-12-29T07:22:23;12.30;99.90
17252;DHT22;8742;51.716;8.790;2022-12-29T07:24:50;12.20;99.90
17252;DHT22;8742;51.716;8.790;2022-12-29T07:27:17;12.10;99.90
17252;DHT22;8742;51.716;8.790;2022-12-29T07:29:44;12.10;99.90
17252;DHT22;8742;51.716;8.790;2022-12-29T07:32:12;12.10;99.90
17252;DHT22;8742;51.716;8.790;2022-12-29T07:34:39;12.10;99.90
17252;DHT22;8742;51.716;8.790;2022-12-29T07:37:06;12.10;99.90
17252;DHT22;8742;51.716;8.790;2022-12-29T07:39:32;12.10;99.90
17252;DHT22;8742;51.716;8.790;2022-12-29T07:41:59;12.10;99.90
17252;DHT22;8742;51.716;8.790;2022-12-29T07:44:26;12.10;99.90
17252;DHT22;8742;51.716;8.790;2022-12-29T07:46:53;12.10;99.90
17252;DHT22;8742;51.716;8.790;2022-12-29T07:49:21;12.10;99.90
17252;DHT22;8742;51.716;8.790;2022-12-29T07:51:48;12.10;99.90
17252;DHT22;8742;51.716;8.790;2022-12-29T07:54:15;12.10;99.90
17252;DHT22;8742;51.716;8.790;2022-12-29T07:56:43;12.10;99.90
17252;DHT22;8742;51.716;8.790;2022-12-29T07:59:10;12.10;99.90
17252;DHT22;8742;51.716;8.790;2022-12-29T08:01:38;12.10;99.90
17252;DHT22;8742;51.716;8.790;2022-12-29T08:04:05;12.10;99.90
17252;DHT22;8742;51.716;8.790;2022-12-29T08:06:33;12.10;99.90
17252;DHT22;8742;51.716;8.790;2022-12-29T08:09:00;12.10;99.90
17252;DHT22;8742;51.716;8.790;2022-12-29T08:11:27;12.00;99.90
17252;DHT22;8742;51.716;8.790;2022-12-29T08:13:54;12.00;99.90
17252;DHT22;8742;51.716;8.790;2022-12-29T08:16:21;11.90;99.90
17252;DHT22;8742;51.716;8.790;2022-12-29T08:18:48;11.90;99.90
17252;DHT22;8742;51.716;8.790;2022-12-29T08:21:14;11.80;99.90
17252;DHT22;8742;51.716;8.790;2022-12-29T08:23:42;11.80;99.90
17252;DHT22;8742;51.716;8.790;2022-12-29T08:26:10;11.70;99.90
17252;DHT22;8742;51.716;8.790;2022-12-29T08:28:36;11.50;99.90
17252;DHT22;8742;51.716;8.790;2022-12-29T08:31:03;11.50;99.90
17252;DHT22;8742;51.716;8.790;2022-12-29T08:33:30;11.40;99.90
17252;DHT22;8742;51.716;8.790;2022-12-29T08:36:01;11.40;99.90
17252;DHT22;8742;51.716;8.790;2022-12-29T08:38:28;11.30;99.90
17252;DHT22;8742;51.716;8.790;2022-12-29T08:40:57;11.20;99.90
17252;DHT22;8742;51.716;8.790;2022-12-29T08:43:25;11.10;99.90
17252;DHT22;8742;51.716;8.790;2022-12-29T08:45:52;11.10;99.90
17252;DHT22;8742;51.716;8.790;2022-12-29T08:48:18;11.10;99.90
17252;DHT22;8742;51.716;8.790;2022-12-29T08:50:48;11.10;99.90
17252;DHT22;8742;51.716;8.790;2022-12-29T08:53:15;11.00;99.90
17252;DHT22;8742;51.716;8.790;2022-12-29T08:55:44;11.00;99.90
17252;DHT22;8742;51.716;8.790;2022-12-29T08:58:13;11.00;99.90
17252;DHT22;8742;51.716;8.790;2022-12-29T09:00:42;11.00;99.90
17252;DHT22;8742;51.716;8.790;2022-12-29T09:03:09;11.00;99.90
17252;DHT22;8742;51.716;8.790;2022-12-29T09:05:36;10.90;99.90
17252;DHT22;8742;51.716;8.790;2022-12-29T09:08:03;10.90;99.90
17252;DHT22;8742;51.716;8.790;2022-12-29T09:10:30;10.90;99.90
17252;DHT22;8742;51.716;8.790;2022-12-29T09:12:56;10.90;99.90
17252;DHT22;8742;51.716;8.790;2022-12-29T09:15:25;10.80;99.90
17252;DHT22;8742;51.716;8.790;2022-12-29T09:17:51;10.80;99.90
17252;DHT22;8742;51.716;8.790;2022-12-29T09:20:19;10.90;99.90
17252;DHT22;8742;51.716;8.790;2022-12-29T09:22:46;10.90;99.90
17252;DHT22;8742;51.716;8.790;2022-12-29T09:25:14;10.90;99.90
17252;DHT22;8742;51.716;8.790;2022-12-29T09:27:41;11.10;99.90
17252;DHT22;8742;51.716;8.790;2022-12-29T09:30:10;11.50;99.90
17252;DHT22;8742;51.716;8.790;2022-12-29T09:32:38;11.70;99.90
17252;DHT22;8742;51.716;8.790;2022-12-29T09:35:06;11.80;99.90
17252;DHT22;8742;51.716;8.790;2022-12-29T09:37:33;11.70;99.90
17252;DHT22;8742;51.716;8.790;2022-12-29T09:39:59;11.70;99.90
17252;DHT22;8742;51.716;8.790;2022-12-29T09:42:32;11.60;99.90
17252;DHT22;8742;51.716;8.790;2022-12-29T09:45:10;11.60;99.90
17252;DHT22;8742;51.716;8.790;2022-12-29T09:47:41;11.60;99.90
17252;DHT22;8742;51.716;8.790;2022-12-29T09:50:13;11.70;99.90
17252;DHT22;8742;51.716;8.790;2022-12-29T09:52:48;11.70;99.90
17252;DHT22;8742;51.716;8.790;2022-12-29T09:55:20;11.70;99.90
17252;DHT22;8742;51.716;8.790;2022-12-29T09:57:52;12.00;99.90
17252;DHT22;8742;51.716;8.790;2022-12-29T10:00:22;12.50;99.90
17252;DHT22;8742;51.716;8.790;2022-12-29T10:02:54;13.20;99.90
17252;DHT22;8742;51.716;8.790;2022-12-29T10:05:36;13.90;99.90
17252;DHT22;8742;51.716;8.790;2022-12-29T10:08:17;14.40;99.90
17252;DHT22;8742;51.716;8.790;2022-12-29T10:10:50;14.80;99.90
17252;DHT22;8742;51.716;8.790;2022-12-29T10:13:28;14.70;99.90
17252;DHT22;8742;51.716;8.790;2022-12-29T10:16:02;14.20;99.90
17252;DHT22;8742;51.716;8.790;2022-12-29T10:18:57;13.80;99.90
17252;DHT22;8742;51.716;8.790;2022-12-29T10:21:36;13.60;99.90
17252;DHT22;8742;51.716;8.790;2022-12-29T10:24:12;13.30;99.90
17252;DHT22;8742;51.716;8.790;2022-12-29T10:26:41;13.00;99.90
17252;DHT22;8742;51.716;8.790;2022-12-29T10:29:13;12.70;99.90
17252;DHT22;8742;51.716;8.790;2022-12-29T10:31:44;12.40;99.90
17252;DHT22;8742;51.716;8.790;2022-12-29T10:34:19;12.10;99.90
17252;DHT22;8742;51.716;8.790;2022-12-29T10:36:48;11.80;99.90
17252;DHT22;8742;51.716;8.790;2022-12-29T10:39:20;11.60;99.90
17252;DHT22;8742;51.716;8.790;2022-12-29T10:41:50;11.40;99.90
17252;DHT22;8742;51.716;8.790;2022-12-29T10:44:18;11.10;99.90
17252;DHT22;8742;51.716;8.790;2022-12-29T10:46:54;10.80;99.90
17252;DHT22;8742;51.716;8.790;2022-12-29T10:49:24;10.70;99.90
17252;DHT22;8742;51.716;8.790;2022-12-29T10:51:54;10.50;99.90
17252;DHT22;8742;51.716;8.790;2022-12-29T10:54:27;10.40;99.90
17252;DHT22;8742;51.716;8.790;2022-12-29T10:57:01;10.30;99.90
17252;DHT22;8742;51.716;8.790;2022-12-29T10:59:31;10.80;99.90
17252;DHT22;8742;51.716;8.790;2022-12-29T11:02:25;11.80;99.90
17252;DHT22;8742;51.716;8.790;2022-12-29T11:05:02;13.00;99.90
17252;DHT22;8742;51.716;8.790;2022-12-29T11:07:30;14.10;99.90
17252;DHT22;8742;51.716;8.790;2022-12-29T11:10:20;14.70;99.90
17252;DHT22;8742;51.716;8.790;2022-12-29T11:12:58;14.70;99.90
17252;DHT22;8742;51.716;8.790;2022-12-29T11:15:25;14.50;99.90
17252;DHT22;8742;51.716;8.790;2022-12-29T11:17:53;14.30;99.90
17252;DHT22;8742;51.716;8.790;2022-12-29T11:20:33;13.90;99.90
17252;DHT22;8742;51.716;8.790;2022-12-29T11:23:01;13.50;99.90
17252;DHT22;8742;51.716;8.790;2022-12-29T11:25:28;13.00;99.90
17252;DHT22;8742;51.716;8.790;2022-12-29T11:27:57;12.70;99.90
17252;DHT22;8742;51.716;8.790;2022-12-29T11:30:26;12.50;99.90
17252;DHT22;8742;51.716;8.790;2022-12-29T11:32:54;12.30;99.90
17252;DHT22;8742;51.716;8.790;2022-12-29T11:35:41;12.30;99.90
17252;DHT22;8742;51.716;8.790;2022-12-29T11:38:20;12.10;99.90
17252;DHT22;8742;51.716;8.790;2022-12-29T11:40:48;12.00;99.90
17252;DHT22;8742;51.716;8.790;2022-12-29T11:43:21;12.00;99.90
17252;DHT22;8742;51.716;8.790;2022-12-29T11:45:52;12.00;99.90
17252;DHT22;8742;51.716;8.790;2022-12-29T11:48:22;11.90;99.90
17252;DHT22;8742;51.716;8.790;2022-12-29T11:50:52;11.90;99.90
17252;DHT22;8742;51.716;8.790;2022-12-29T11:53:21;11.90;99.90
17252;DHT22;8742;51.716;8.790;2022-12-29T11:55:53;11.80;99.90
17252;DHT22;8742;51.716;8.790;2022-12-29T11:58:28;11.80;99.90
17252;DHT22;8742;51.716;8.790;2022-12-29T12:00:56;11.70;99.90
17252;DHT22;8742;51.716;8.790;2022-12-29T12:03:27;11.70;99.90
17252;DHT22;8742;51.716;8.790;2022-12-29T12:06:00;11.70;99.90
17252;DHT22;8742;51.716;8.790;2022-12-29T12:08:33;11.60;99.90
17252;DHT22;8742;51.716;8.790;2022-12-29T12:11:06;11.60;99.90
17252;DHT22;8742;51.716;8.790;2022-12-29T12:13:37;11.60;99.90
17252;DHT22;8742;51.716;8.790;2022-12-29T12:16:09;11.60;99.90
17252;DHT22;8742;51.716;8.790;2022-12-29T12:18:41;11.60;99.90
17252;DHT22;8742;51.716;8.790;2022-12-29T12:21:20;11.60;99.90
17252;DHT22;8742;51.716;8.790;2022-12-29T12:24:13;11.60;99.90
17252;DHT22;8742;51.716;8.790;2022-12-29T12:26:55;11.60;99.90
17252;DHT22;8742;51.716;8.790;2022-12-29T12:29:25;11.60;99.90
17252;DHT22;8742;51.716;8.790;2022-12-29T12:31:57;11.60;99.90
17252;DHT22;8742;51.716;8.790;2022-12-29T12:34:32;11.60;99.90
17252;DHT22;8742;51.716;8.790;2022-12-29T12:37:19;11.60;99.90
17252;DHT22;8742;51.716;8.790;2022-12-29T12:40:04;11.50;99.90
17252;DHT22;8742;51.716;8.790;2022-12-29T12:42:46;11.50;99.90
17252;DHT22;8742;51.716;8.790;2022-12-29T12:45:33;11.60;99.90
17252;DHT22;8742;51.716;8.790;2022-12-29T12:48:14;11.60;99.90
17252;DHT22;8742;51.716;8.790;2022-12-29T12:50:53;11.60;99.90
17252;DHT22;8742;51.716;8.790;2022-12-29T12:53:42;11.60;99.90
17252;DHT22;8742;51.716;8.790;2022-12-29T12:56:22;11.60;99.90
17252;DHT22;8742;51.716;8.790;2022-12-29T12:58:57;11.60;99.90
17252;DHT22;8742;51.716;8.790;2022-12-29T13:01:37;11.60;99.90
17252;DHT22;8742;51.716;8.790;2022-12-29T13:04:19;11.50;99.90
17252;DHT22;8742;51.716;8.790;2022-12-29T13:06:55;11.50;99.90
17252;DHT22;8742;51.716;8.790;2022-12-29T13:09:39;11.50;99.90
17252;DHT22;8742;51.716;8.790;2022-12-29T13:12:23;11.50;99.90
17252;DHT22;8742;51.716;8.790;2022-12-29T13:15:04;11.50;99.90
17252;DHT22;8742;51.716;8.790;2022-12-29T13:17:39;11.50;99.90
17252;DHT22;8742;51.716;8.790;2022-12-29T13:20:18;11.50;99.90
17252;DHT22;8742;51.716;8.790;2022-12-29T13:22:53;11.50;99.90
17252;DHT22;8742;51.716;8.790;2022-12-29T13:25:38;11.50;99.90
17252;DHT22;8742;51.716;8.790;2022-12-29T13:28:11;11.50;99.90
17252;DHT22;8742;51.716;8.790;2022-12-29T13:30:43;11.50;99.90
17252;DHT22;8742;51.716;8.790;2022-12-29T13:33:17;11.50;99.90
17252;DHT22;8742;51.716;8.790;2022-12-29T13:35:59;11.50;99.90
17252;DHT22;8742;51.716;8.790;2022-12-29T13:38:32;11.40;99.90
17252;DHT22;8742;51.716;8.790;2022-12-29T13:41:04;11.40;99.90
17252;DHT22;8742;51.716;8.790;2022-12-29T13:43:35;11.40;99.90
17252;DHT22;8742;51.716;8.790;2022-12-29T13:46:07;11.40;99.90
17252;DHT22;8742;51.716;8.790;2022-12-29T13:48:39;11.40;99.90
17252;DHT22;8742;51.716;8.790;2022-12-29T13:51:08;11.40;99.90
17252;DHT22;8742;51.716;8.790;2022-12-29T13:53:47;11.40;99.90
17252;DHT22;8742;51.716;8.790;2022-12-29T13:56:25;11.40;99.90
17252;DHT22;8742;51.716;8.790;2022-12-29T13:59:00;11.40;99.90
17252;DHT22;8742;51.716;8.790;2022-12-29T14:01:33;11.40;99.90
17252;DHT22;8742;51.716;8.790;2022-12-29T14:04:03;11.30;99.90
17252;DHT22;8742;51.716;8.790;2022-12-29T14:06:35;11.30;99.90
17252;DHT22;8742;51.716;8.790;2022-12-29T14:09:34;11.30;99.90
17252;DHT22;8742;51.716;8.790;2022-12-29T14:11:55;11.20;99.90
17252;DHT22;8742;51.716;8.790;2022-12-29T14:14:23;11.20;99.90
17252;DHT22;8742;51.716;8.790;2022-12-29T14:16:52;11.20;99.90
17252;DHT22;8742;51.716;8.790;2022-12-29T14:19:23;11.20;99.90
17252;DHT22;8742;51.716;8.790;2022-12-29T14:21:54;11.10;99.90
17252;DHT22;8742;51.716;8.790;2022-12-29T14:24:40;11.10;99.90
17252;DHT22;8742;51.716;8.790;2022-12-29T14:33:13;10.90;99.90
17252;DHT22;8742;51.716;8.790;2022-12-29T14:35:42;10.90;99.90
17252;DHT22;8742;51.716;8.790;2022-12-29T14:38:24;10.80;99.90
17252;DHT22;8742;51.716;8.790;2022-12-29T14:40:52;10.70;99.90
17252;DHT22;8742;51.716;8.790;2022-12-29T14:43:52;10.60;99.90
17252;DHT22;8742;51.716;8.790;2022-12-29T14:46:19;10.50;99.90
17252;DHT22;8742;51.716;8.790;2022-12-29T14:48:52;10.50;99.90
17252;DHT22;8742;51.716;8.790;2022-12-29T14:51:30;10.40;99.90
17252;DHT22;8742;51.716;8.790;2022-12-29T14:53:57;10.50;99.90
17252;DHT22;8742;51.716;8.790;2022-12-29T14:56:26;10.50;99.90
17252;DHT22;8742;51.716;8.790;2022-12-29T14:58:55;10.50;99.90
17252;DHT22;8742;51.716;8.790;2022-12-29T15:01:29;10.50;99.90
17252;DHT22;8742;51.716;8.790;2022-12-29T15:04:05;10.50;99.90
17252;DHT22;8742;51.716;8.790;2022-12-29T15:06:40;10.50;99.90
17252;DHT22;8742;51.716;8.790;2022-12-29T15:09:15;10.50;99.90
17252;DHT22;8742;51.716;8.790;2022-12-29T15:11:49;10.50;99.90
17252;DHT22;8742;51.716;8.790;2022-12-29T15:14:37;10.50;99.90
17252;DHT22;8742;51.716;8.790;2022-12-29T15:17:10;10.60;99.90
17252;DHT22;8742;51.716;8.790;2022-12-29T15:19:39;10.50;99.90
17252;DHT22;8742;51.716;8.790;2022-12-29T15:22:07;10.50;99.90
17252;DHT22;8742;51.716;8.790;2022-12-29T15:24:35;10.50;99.90
17252;DHT22;8742;51.716;8.790;2022-12-29T15:27:10;10.50;99.90
17252;DHT22;8742;51.716;8.790;2022-12-29T15:29:41;10.50;99.90
17252;DHT22;8742;51.716;8.790;2022-12-29T15:32:22;10.50;99.90
17252;DHT22;8742;51.716;8.790;2022-12-29T15:34:53;10.50;99.90
17252;DHT22;8742;51.716;8.790;2022-12-29T15:37:23;10.50;99.90
17252;DHT22;8742;51.716;8.790;2022-12-29T15:39:50;10.50;99.90
17252;DHT22;8742;51.716;8.790;2022-12-29T15:42:32;10.50;99.90
17252;DHT22;8742;51.716;8.790;2022-12-29T15:45:04;10.50;99.90
17252;DHT22;8742;51.716;8.790;2022-12-29T15:47:31;10.50;99.90
17252;DHT22;8742;51.716;8.790;2022-12-29T15:50:03;10.50;99.90
17252;DHT22;8742;51.716;8.790;2022-12-29T15:52:32;10.50;99.90
17252;DHT22;8742;51.716;8.790;2022-12-29T15:55:00;10.50;99.90
17252;DHT22;8742;51.716;8.790;2022-12-29T15:57:29;10.50;99.90
17252;DHT22;8742;51.716;8.790;2022-12-29T15:59:58;10.50;99.90
17252;DHT22;8742;51.716;8.790;2022-12-29T16:02:26;10.60;99.90
17252;DHT22;8742;51.716;8.790;2022-12-29T16:04:54;10.60;99.90
17252;DHT22;8742;51.716;8.790;2022-12-29T16:07:27;10.60;99.90
17252;DHT22;8742;51.716;8.790;2022-12-29T16:09:55;10.60;99.90
17252;DHT22;8742;51.716;8.790;2022-12-29T16:12:24;10.60;99.90
17252;DHT22;8742;51.716;8.790;2022-12-29T16:14:54;10.70;99.90
17252;DHT22;8742;51.716;8.790;2022-12-29T16:17:24;10.70;99.90
17252;DHT22;8742;51.716;8.790;2022-12-29T16:19:55;10.60;99.90
17252;DHT22;8742;51.716;8.790;2022-12-29T16:22:27;10.60;99.90
17252;DHT22;8742;51.716;8.790;2022-12-29T16:24:57;10.60;99.90